EZY76PY EHAM-EGGD
Flight info
| Callsign | EZY76PY |
|---|---|
| Flight time | 0h 56m |
| Altitude | 32000 |
| Route | IDRID L980 LAM L179 ICTAM |
| Aircraft | A21N/M-SDE2E3FGHIJ1RWXY/LB1 |
Departure
| Time | 2026-04-30 06:21 |
|---|---|
| Airport | Amsterdam Airport Schiphol (EHAM) |
Arrival
| Time | 2026-04-30 07:17 |
|---|---|
| Airport | Bristol Airport (EGGD) |
| Time | Latitude | Longitude | Altitude | Speed | Heading |
|---|---|---|---|---|---|
| 2026-04-30 05:32 | 52.31048 | 4.75515 | 4 ft | 0 kts | 148° |
| 2026-04-30 06:05 | 52.31079 | 4.75486 | 4 ft | 4 kts | 130° |
| 2026-04-30 06:05 | 52.31082 | 4.75464 | 4 ft | 4 kts | 73° |
| 2026-04-30 06:05 | 52.31076 | 4.75435 | 4 ft | 0 kts | 72° |
| 2026-04-30 06:08 | 52.31078 | 4.75443 | 4 ft | 2 kts | 68° |
| 2026-04-30 06:08 | 52.31094 | 4.75476 | 4 ft | 6 kts | 38° |
| 2026-04-30 06:08 | 52.31142 | 4.75497 | 4 ft | 9 kts | 360° |
| 2026-04-30 06:09 | 52.31204 | 4.75492 | 4 ft | 9 kts | 356° |
| 2026-04-30 06:09 | 52.31273 | 4.75485 | 4 ft | 10 kts | 357° |
| 2026-04-30 06:09 | 52.31348 | 4.75478 | 4 ft | 11 kts | 357° |
| 2026-04-30 06:09 | 52.31428 | 4.75471 | 4 ft | 12 kts | 357° |
| 2026-04-30 06:10 | 52.31498 | 4.75450 | 4 ft | 11 kts | 311° |
| 2026-04-30 06:10 | 52.31507 | 4.75329 | 4 ft | 11 kts | 267° |
| 2026-04-30 06:10 | 52.31503 | 4.75195 | 4 ft | 12 kts | 267° |
| 2026-04-30 06:10 | 52.31498 | 4.75052 | 4 ft | 13 kts | 266° |
| 2026-04-30 06:11 | 52.31493 | 4.74901 | 4 ft | 14 kts | 268° |
| 2026-04-30 06:11 | 52.31488 | 4.74741 | 4 ft | 14 kts | 267° |
| 2026-04-30 06:11 | 52.31482 | 4.74574 | 5 ft | 15 kts | 267° |
| 2026-04-30 06:11 | 52.31476 | 4.74401 | 5 ft | 13 kts | 267° |
| 2026-04-30 06:12 | 52.31505 | 4.74304 | 4 ft | 11 kts | 341° |
| 2026-04-30 06:12 | 52.31583 | 4.74301 | 4 ft | 12 kts | 3° |
| 2026-04-30 06:12 | 52.31666 | 4.74309 | 5 ft | 12 kts | 4° |
| 2026-04-30 06:12 | 52.31754 | 4.74317 | 4 ft | 13 kts | 4° |
| 2026-04-30 06:13 | 52.31848 | 4.74326 | 4 ft | 14 kts | 4° |
| 2026-04-30 06:13 | 52.31946 | 4.74335 | 4 ft | 14 kts | 3° |
| 2026-04-30 06:13 | 52.32016 | 4.74312 | 4 ft | 11 kts | 310° |
| 2026-04-30 06:13 | 52.32032 | 4.74189 | 4 ft | 12 kts | 274° |
| 2026-04-30 06:14 | 52.32037 | 4.74054 | 4 ft | 12 kts | 273° |
| 2026-04-30 06:14 | 52.32042 | 4.73910 | 4 ft | 13 kts | 274° |
| 2026-04-30 06:14 | 52.32047 | 4.73747 | 5 ft | 15 kts | 273° |
| 2026-04-30 06:14 | 52.32054 | 4.73569 | 5 ft | 16 kts | 274° |
| 2026-04-30 06:15 | 52.32070 | 4.73408 | 4 ft | 13 kts | 296° |
| 2026-04-30 06:15 | 52.32132 | 4.73295 | 4 ft | 14 kts | 319° |
| 2026-04-30 06:15 | 52.32211 | 4.73184 | 4 ft | 16 kts | 319° |
| 2026-04-30 06:15 | 52.32297 | 4.73063 | 4 ft | 17 kts | 319° |
| 2026-04-30 06:16 | 52.32390 | 4.72933 | 4 ft | 18 kts | 319° |
| 2026-04-30 06:16 | 52.32488 | 4.72794 | 4 ft | 19 kts | 319° |
| 2026-04-30 06:16 | 52.32589 | 4.72652 | 4 ft | 16 kts | 319° |
| 2026-04-30 06:16 | 52.32667 | 4.72541 | 4 ft | 15 kts | 317° |
| 2026-04-30 06:17 | 52.32740 | 4.72407 | 4 ft | 16 kts | 311° |
| 2026-04-30 06:17 | 52.32819 | 4.72261 | 4 ft | 18 kts | 311° |
| 2026-04-30 06:17 | 52.32903 | 4.72105 | 4 ft | 19 kts | 311° |
| 2026-04-30 06:17 | 52.32993 | 4.71938 | 4 ft | 20 kts | 311° |
| 2026-04-30 06:18 | 52.33088 | 4.71765 | 4 ft | 21 kts | 312° |
| 2026-04-30 06:18 | 52.33149 | 4.71609 | 4 ft | 16 kts | 276° |
| 2026-04-30 06:18 | 52.33101 | 4.71453 | 5 ft | 17 kts | 220° |
| 2026-04-30 06:18 | 52.33009 | 4.71323 | 4 ft | 18 kts | 221° |
| 2026-04-30 06:19 | 52.32913 | 4.71185 | 4 ft | 16 kts | 221° |
| 2026-04-30 06:19 | 52.32863 | 4.71077 | 4 ft | 11 kts | 256° |
| 2026-04-30 06:19 | 52.32870 | 4.70946 | 3 ft | 12 kts | 296° |
| 2026-04-30 06:19 | 52.32946 | 4.70901 | 2 ft | 13 kts | 1° |
| 2026-04-30 06:20 | 52.33079 | 4.70912 | 1 ft | 41 kts | 3° |
| 2026-04-30 06:20 | 52.33376 | 4.70940 | 3 ft | 87 kts | 4° |
| 2026-04-30 06:20 | 52.34543 | 4.71046 | 4 ft | 161 kts | 5° |
| 2026-04-30 06:20 | 52.35326 | 4.71109 | 166 ft | 173 kts | 8° |
| 2026-04-30 06:21 | 52.36539 | 4.71200 | 738 ft | 177 kts | 9° |
| 2026-04-30 06:21 | 52.37799 | 4.71333 | 1220 ft | 191 kts | 13° |
| 2026-04-30 06:21 | 52.39206 | 4.71484 | 1705 ft | 213 kts | 11° |
| 2026-04-30 06:21 | 52.40736 | 4.71626 | 2339 ft | 230 kts | 10° |
| 2026-04-30 06:22 | 52.42434 | 4.71602 | 2783 ft | 259 kts | 355° |
| 2026-04-30 06:22 | 52.44145 | 4.70383 | 3452 ft | 281 kts | 325° |
| 2026-04-30 06:22 | 52.45570 | 4.68150 | 4365 ft | 286 kts | 313° |
| 2026-04-30 06:22 | 52.46589 | 4.65346 | 5294 ft | 290 kts | 287° |
| 2026-04-30 06:23 | 52.46839 | 4.62067 | 6178 ft | 292 kts | 269° |
| 2026-04-30 06:23 | 52.46811 | 4.58718 | 7056 ft | 295 kts | 267° |
| 2026-04-30 06:23 | 52.46587 | 4.55368 | 7849 ft | 297 kts | 251° |
| 2026-04-30 06:23 | 52.45642 | 4.52409 | 8626 ft | 293 kts | 224° |
| 2026-04-30 06:24 | 52.44082 | 4.50302 | 9438 ft | 291 kts | 207° |
| 2026-04-30 06:24 | 52.42410 | 4.48383 | 10280 ft | 300 kts | 220° |
| 2026-04-30 06:24 | 52.41130 | 4.45563 | 10836 ft | 320 kts | 236° |
| 2026-04-30 06:24 | 52.40038 | 4.42267 | 11298 ft | 337 kts | 239° |
| 2026-04-30 06:25 | 52.38948 | 4.38825 | 12019 ft | 343 kts | 240° |
| 2026-04-30 06:25 | 52.37836 | 4.35346 | 12789 ft | 347 kts | 240° |
| 2026-04-30 06:25 | 52.36704 | 4.31839 | 13576 ft | 351 kts | 240° |
| 2026-04-30 06:25 | 52.35554 | 4.28292 | 14337 ft | 355 kts | 240° |
| 2026-04-30 06:26 | 52.34386 | 4.24716 | 15030 ft | 359 kts | 240° |
| 2026-04-30 06:26 | 52.33203 | 4.21103 | 15735 ft | 362 kts | 240° |
| 2026-04-30 06:26 | 52.32007 | 4.17457 | 16427 ft | 366 kts | 239° |
| 2026-04-30 06:26 | 52.30642 | 4.13942 | 17114 ft | 367 kts | 231° |
| 2026-04-30 06:27 | 52.29078 | 4.10622 | 17804 ft | 371 kts | 230° |
| 2026-04-30 06:27 | 52.27473 | 4.07297 | 18491 ft | 374 kts | 229° |
| 2026-04-30 06:27 | 52.25854 | 4.03944 | 19109 ft | 378 kts | 230° |
| 2026-04-30 06:27 | 52.24228 | 4.00554 | 19702 ft | 381 kts | 230° |
| 2026-04-30 06:28 | 52.22589 | 3.97137 | 20297 ft | 384 kts | 230° |
| 2026-04-30 06:28 | 52.20938 | 3.93691 | 20883 ft | 387 kts | 230° |
| 2026-04-30 06:28 | 52.19275 | 3.90229 | 21470 ft | 390 kts | 230° |
| 2026-04-30 06:28 | 52.17594 | 3.86735 | 22024 ft | 393 kts | 230° |
| 2026-04-30 06:29 | 52.15900 | 3.83208 | 22578 ft | 397 kts | 230° |
| 2026-04-30 06:29 | 52.14196 | 3.79662 | 23179 ft | 398 kts | 230° |
| 2026-04-30 06:29 | 52.12477 | 3.76101 | 23667 ft | 403 kts | 230° |
| 2026-04-30 06:29 | 52.10733 | 3.72495 | 24109 ft | 407 kts | 230° |
| 2026-04-30 06:30 | 52.08982 | 3.68874 | 24601 ft | 408 kts | 230° |
| 2026-04-30 06:30 | 52.07216 | 3.65237 | 25065 ft | 411 kts | 230° |
| 2026-04-30 06:30 | 52.05435 | 3.61578 | 25476 ft | 414 kts | 230° |
| 2026-04-30 06:30 | 52.03645 | 3.57902 | 25936 ft | 415 kts | 230° |
| 2026-04-30 06:31 | 52.01844 | 3.54210 | 26367 ft | 418 kts | 230° |
| 2026-04-30 06:31 | 52.00033 | 3.50497 | 26756 ft | 421 kts | 230° |
| 2026-04-30 06:31 | 51.98275 | 3.46680 | 27193 ft | 424 kts | 232° |
| 2026-04-30 06:31 | 51.96529 | 3.42816 | 27614 ft | 426 kts | 232° |
| 2026-04-30 06:32 | 51.94774 | 3.38934 | 27982 ft | 428 kts | 231° |
| 2026-04-30 06:32 | 51.93009 | 3.35027 | 28403 ft | 430 kts | 231° |
| 2026-04-30 06:32 | 51.91235 | 3.31114 | 28776 ft | 432 kts | 231° |
| 2026-04-30 06:32 | 51.89451 | 3.27175 | 29122 ft | 435 kts | 231° |
| 2026-04-30 06:33 | 51.87657 | 3.23226 | 29493 ft | 437 kts | 231° |
| 2026-04-30 06:33 | 51.85989 | 3.19094 | 29820 ft | 441 kts | 240° |
| 2026-04-30 06:33 | 51.84828 | 3.14474 | 30128 ft | 447 kts | 253° |
| 2026-04-30 06:33 | 51.84291 | 3.09500 | 30456 ft | 451 kts | 263° |
| 2026-04-30 06:34 | 51.83998 | 3.04451 | 30762 ft | 452 kts | 264° |
| 2026-04-30 06:34 | 51.83719 | 2.99372 | 31042 ft | 454 kts | 264° |
| 2026-04-30 06:34 | 51.83416 | 2.94276 | 31307 ft | 456 kts | 263° |
| 2026-04-30 06:34 | 51.83090 | 2.89164 | 31596 ft | 458 kts | 262° |
| 2026-04-30 06:35 | 51.82753 | 2.84045 | 31944 ft | 458 kts | 262° |
| 2026-04-30 06:35 | 51.82411 | 2.78944 | 32294 ft | 457 kts | 262° |
| 2026-04-30 06:35 | 51.82062 | 2.73814 | 32391 ft | 459 kts | 262° |
| 2026-04-30 06:36 | 51.81359 | 2.63569 | 32371 ft | 459 kts | 262° |
| 2026-04-30 06:36 | 51.80649 | 2.53314 | 32359 ft | 459 kts | 262° |
| 2026-04-30 06:37 | 51.79929 | 2.43076 | 32355 ft | 459 kts | 262° |
| 2026-04-30 06:37 | 51.79205 | 2.32862 | 32354 ft | 456 kts | 261° |
| 2026-04-30 06:38 | 51.78481 | 2.22668 | 32352 ft | 457 kts | 262° |
| 2026-04-30 06:38 | 51.77873 | 2.12438 | 32350 ft | 458 kts | 263° |
| 2026-04-30 06:39 | 51.77268 | 2.02204 | 32348 ft | 458 kts | 262° |
| 2026-04-30 06:39 | 51.76654 | 1.91969 | 32352 ft | 458 kts | 262° |
| 2026-04-30 06:40 | 51.76031 | 1.81775 | 32349 ft | 456 kts | 262° |
| 2026-04-30 06:40 | 51.75402 | 1.71592 | 32344 ft | 456 kts | 262° |
| 2026-04-30 06:41 | 51.74764 | 1.61413 | 32347 ft | 456 kts | 262° |
| 2026-04-30 06:41 | 51.74117 | 1.51233 | 32336 ft | 456 kts | 262° |
| 2026-04-30 06:42 | 51.73461 | 1.41064 | 32343 ft | 456 kts | 261° |
| 2026-04-30 06:42 | 51.72793 | 1.30882 | 32336 ft | 457 kts | 261° |
| 2026-04-30 06:43 | 51.72118 | 1.20699 | 32335 ft | 457 kts | 261° |
| 2026-04-30 06:43 | 51.71434 | 1.10513 | 32324 ft | 457 kts | 261° |
| 2026-04-30 06:44 | 51.70746 | 1.00332 | 32315 ft | 457 kts | 261° |
| 2026-04-30 06:44 | 51.70043 | 0.90156 | 32332 ft | 458 kts | 260° |
| 2026-04-30 06:45 | 51.69330 | 0.79952 | 32320 ft | 458 kts | 260° |
| 2026-04-30 06:45 | 51.68611 | 0.69757 | 32317 ft | 458 kts | 260° |
| 2026-04-30 06:46 | 51.67878 | 0.59562 | 32314 ft | 458 kts | 260° |
| 2026-04-30 06:46 | 51.67141 | 0.49369 | 32322 ft | 458 kts | 260° |
| 2026-04-30 06:47 | 51.66397 | 0.39185 | 32315 ft | 458 kts | 259° |
| 2026-04-30 06:47 | 51.65637 | 0.29006 | 32305 ft | 458 kts | 259° |
| 2026-04-30 06:48 | 51.64871 | 0.18828 | 32301 ft | 458 kts | 259° |
| 2026-04-30 06:48 | 51.63913 | 0.08715 | 32296 ft | 456 kts | 257° |
| 2026-04-30 06:49 | 51.62827 | -0.01339 | 32348 ft | 456 kts | 256° |
| 2026-04-30 06:49 | 51.61740 | -0.11443 | 32366 ft | 455 kts | 257° |
| 2026-04-30 06:50 | 51.60891 | -0.21552 | 32374 ft | 456 kts | 259° |
| 2026-04-30 06:50 | 51.60482 | -0.26566 | 31977 ft | 450 kts | 259° |
| 2026-04-30 06:50 | 51.60075 | -0.31505 | 31173 ft | 451 kts | 258° |
| 2026-04-30 06:50 | 51.59656 | -0.36551 | 30608 ft | 447 kts | 258° |
| 2026-04-30 06:51 | 51.59245 | -0.41478 | 30041 ft | 443 kts | 258° |
| 2026-04-30 06:51 | 51.58839 | -0.46304 | 29464 ft | 438 kts | 258° |
| 2026-04-30 06:51 | 51.58425 | -0.51179 | 28928 ft | 432 kts | 258° |
| 2026-04-30 06:51 | 51.58021 | -0.55927 | 28455 ft | 426 kts | 258° |
| 2026-04-30 06:52 | 51.57620 | -0.60604 | 27988 ft | 419 kts | 258° |
| 2026-04-30 06:52 | 51.57223 | -0.65213 | 27526 ft | 414 kts | 258° |
| 2026-04-30 06:52 | 51.56830 | -0.69768 | 27070 ft | 409 kts | 258° |
| 2026-04-30 06:52 | 51.56439 | -0.74268 | 26610 ft | 404 kts | 258° |
| 2026-04-30 06:53 | 51.56051 | -0.78717 | 26163 ft | 399 kts | 258° |
| 2026-04-30 06:53 | 51.55667 | -0.83106 | 25741 ft | 394 kts | 258° |
| 2026-04-30 06:53 | 51.55286 | -0.87445 | 25318 ft | 390 kts | 258° |
| 2026-04-30 06:53 | 51.54906 | -0.91749 | 24888 ft | 389 kts | 258° |
| 2026-04-30 06:54 | 51.54524 | -0.96046 | 24435 ft | 388 kts | 258° |
| 2026-04-30 06:54 | 51.54142 | -1.00336 | 24015 ft | 387 kts | 257° |
| 2026-04-30 06:54 | 51.53761 | -1.04611 | 23540 ft | 386 kts | 257° |
| 2026-04-30 06:54 | 51.53378 | -1.08870 | 23057 ft | 384 kts | 257° |
| 2026-04-30 06:55 | 51.52996 | -1.13108 | 22592 ft | 382 kts | 257° |
| 2026-04-30 06:55 | 51.52839 | -1.17349 | 22264 ft | 381 kts | 272° |
| 2026-04-30 06:55 | 51.53246 | -1.21558 | 22228 ft | 382 kts | 278° |
| 2026-04-30 06:55 | 51.53767 | -1.25747 | 22241 ft | 382 kts | 278° |
| 2026-04-30 06:56 | 51.54290 | -1.29935 | 22262 ft | 382 kts | 278° |
| 2026-04-30 06:56 | 51.54801 | -1.34125 | 22258 ft | 382 kts | 278° |
| 2026-04-30 06:56 | 51.55303 | -1.38326 | 22241 ft | 382 kts | 278° |
| 2026-04-30 06:56 | 51.55797 | -1.42520 | 22249 ft | 382 kts | 278° |
| 2026-04-30 06:57 | 51.56290 | -1.46723 | 22259 ft | 383 kts | 277° |
| 2026-04-30 06:57 | 51.56780 | -1.50930 | 22250 ft | 383 kts | 277° |
| 2026-04-30 06:57 | 51.57269 | -1.55140 | 22246 ft | 383 kts | 277° |
| 2026-04-30 06:57 | 51.57756 | -1.59347 | 22246 ft | 383 kts | 277° |
| 2026-04-30 06:58 | 51.58241 | -1.63552 | 22239 ft | 383 kts | 277° |
| 2026-04-30 06:58 | 51.58642 | -1.67779 | 22240 ft | 381 kts | 274° |
| 2026-04-30 06:58 | 51.58956 | -1.72007 | 22234 ft | 381 kts | 273° |
| 2026-04-30 06:58 | 51.59258 | -1.76216 | 22088 ft | 378 kts | 273° |
| 2026-04-30 06:59 | 51.59558 | -1.80414 | 21666 ft | 377 kts | 273° |
| 2026-04-30 06:59 | 51.59857 | -1.84592 | 21210 ft | 375 kts | 273° |
| 2026-04-30 06:59 | 51.59962 | -1.88740 | 20734 ft | 367 kts | 258° |
| 2026-04-30 06:59 | 51.59285 | -1.92585 | 20287 ft | 352 kts | 237° |
| 2026-04-30 07:00 | 51.58078 | -1.95953 | 19881 ft | 350 kts | 240° |
| 2026-04-30 07:00 | 51.57522 | -1.98401 | 19608 ft | 354 kts | 248° |
| 2026-04-30 07:00 | 51.56925 | -2.02243 | 19198 ft | 354 kts | 252° |
| 2026-04-30 07:00 | 51.56394 | -2.06103 | 18788 ft | 353 kts | 252° |
| 2026-04-30 07:01 | 51.55868 | -2.09938 | 18367 ft | 351 kts | 252° |
| 2026-04-30 07:01 | 51.55342 | -2.13762 | 17903 ft | 350 kts | 252° |
| 2026-04-30 07:01 | 51.54873 | -2.17599 | 17421 ft | 351 kts | 257° |
| 2026-04-30 07:01 | 51.54595 | -2.21502 | 16943 ft | 352 kts | 260° |
| 2026-04-30 07:02 | 51.54377 | -2.25415 | 16464 ft | 351 kts | 260° |
| 2026-04-30 07:02 | 51.54170 | -2.29317 | 16001 ft | 350 kts | 261° |
| 2026-04-30 07:02 | 51.53966 | -2.33209 | 15545 ft | 349 kts | 261° |
| 2026-04-30 07:02 | 51.53763 | -2.37085 | 15093 ft | 348 kts | 261° |
| 2026-04-30 07:03 | 51.53559 | -2.40946 | 14670 ft | 346 kts | 261° |
| 2026-04-30 07:03 | 51.53357 | -2.44794 | 14230 ft | 345 kts | 261° |
| 2026-04-30 07:03 | 51.53153 | -2.48628 | 13780 ft | 344 kts | 261° |
| 2026-04-30 07:03 | 51.52951 | -2.52451 | 13307 ft | 343 kts | 261° |
| 2026-04-30 07:04 | 51.52749 | -2.56259 | 12819 ft | 342 kts | 261° |
| 2026-04-30 07:04 | 51.52548 | -2.60061 | 12366 ft | 341 kts | 261° |
| 2026-04-30 07:04 | 51.52346 | -2.63842 | 11912 ft | 340 kts | 261° |
| 2026-04-30 07:04 | 51.52143 | -2.67607 | 11468 ft | 338 kts | 261° |
| 2026-04-30 07:05 | 51.51741 | -2.75089 | 10605 ft | 335 kts | 261° |
| 2026-04-30 07:05 | 51.51541 | -2.78802 | 10273 ft | 331 kts | 261° |
| 2026-04-30 07:05 | 51.51349 | -2.82412 | 10276 ft | 318 kts | 261° |
| 2026-04-30 07:06 | 51.51164 | -2.85871 | 10274 ft | 308 kts | 261° |
| 2026-04-30 07:06 | 51.50979 | -2.89285 | 10305 ft | 307 kts | 261° |
| 2026-04-30 07:06 | 51.50796 | -2.92663 | 9987 ft | 304 kts | 260° |
| 2026-04-30 07:06 | 51.50609 | -2.96056 | 9541 ft | 306 kts | 260° |
| 2026-04-30 07:07 | 51.50423 | -2.99454 | 9116 ft | 306 kts | 260° |
| 2026-04-30 07:07 | 51.50237 | -3.02854 | 8598 ft | 306 kts | 260° |
| 2026-04-30 07:07 | 51.50050 | -3.06247 | 8189 ft | 303 kts | 260° |
| 2026-04-30 07:07 | 51.49866 | -3.09588 | 7782 ft | 298 kts | 260° |
| 2026-04-30 07:08 | 51.49685 | -3.12869 | 7406 ft | 291 kts | 260° |
| 2026-04-30 07:08 | 51.49505 | -3.16077 | 7064 ft | 287 kts | 259° |
| 2026-04-30 07:08 | 51.48935 | -3.19046 | 6728 ft | 273 kts | 233° |
| 2026-04-30 07:08 | 51.47706 | -3.21209 | 6402 ft | 256 kts | 207° |
| 2026-04-30 07:09 | 51.46112 | -3.22180 | 6072 ft | 240 kts | 181° |
| 2026-04-30 07:09 | 51.44504 | -3.21948 | 5776 ft | 229 kts | 161° |
| 2026-04-30 07:09 | 51.43004 | -3.21180 | 5495 ft | 225 kts | 158° |
| 2026-04-30 07:09 | 51.41534 | -3.20368 | 5217 ft | 221 kts | 158° |
| 2026-04-30 07:10 | 51.40091 | -3.19567 | 4983 ft | 216 kts | 157° |
| 2026-04-30 07:10 | 51.38817 | -3.18501 | 4926 ft | 197 kts | 144° |
| 2026-04-30 07:10 | 51.37711 | -3.17277 | 4934 ft | 192 kts | 142° |
| 2026-04-30 07:10 | 51.36981 | -3.15690 | 4974 ft | 172 kts | 110° |
| 2026-04-30 07:11 | 51.36802 | -3.13809 | 4995 ft | 172 kts | 98° |
| 2026-04-30 07:11 | 51.36777 | -3.11885 | 4987 ft | 173 kts | 95° |
| 2026-04-30 07:11 | 51.36799 | -3.09970 | 4949 ft | 172 kts | 93° |
| 2026-04-30 07:11 | 51.36859 | -3.08054 | 4832 ft | 172 kts | 92° |
| 2026-04-30 07:12 | 51.36929 | -3.06143 | 4639 ft | 172 kts | 92° |
| 2026-04-30 07:12 | 51.37003 | -3.04237 | 4424 ft | 171 kts | 92° |
| 2026-04-30 07:12 | 51.37076 | -3.02342 | 4206 ft | 170 kts | 92° |
| 2026-04-30 07:12 | 51.37150 | -3.00462 | 3984 ft | 168 kts | 92° |
| 2026-04-30 07:13 | 51.37223 | -2.98607 | 3765 ft | 166 kts | 92° |
| 2026-04-30 07:13 | 51.37295 | -2.96766 | 3546 ft | 166 kts | 91° |
| 2026-04-30 07:13 | 51.37367 | -2.94925 | 3334 ft | 165 kts | 92° |
| 2026-04-30 07:13 | 51.37438 | -2.93098 | 3112 ft | 164 kts | 91° |
| 2026-04-30 07:14 | 51.37509 | -2.91284 | 2888 ft | 163 kts | 92° |
| 2026-04-30 07:14 | 51.37580 | -2.89487 | 2667 ft | 159 kts | 92° |
| 2026-04-30 07:14 | 51.37647 | -2.87782 | 2461 ft | 147 kts | 92° |
| 2026-04-30 07:14 | 51.37707 | -2.86225 | 2270 ft | 136 kts | 93° |
| 2026-04-30 07:15 | 51.37765 | -2.84713 | 2088 ft | 135 kts | 92° |
| 2026-04-30 07:15 | 51.37824 | -2.83231 | 1896 ft | 130 kts | 92° |
| 2026-04-30 07:15 | 51.37877 | -2.81864 | 1731 ft | 120 kts | 94° |
| 2026-04-30 07:15 | 51.37928 | -2.80536 | 1560 ft | 120 kts | 92° |
| 2026-04-30 07:16 | 51.37980 | -2.79198 | 1385 ft | 122 kts | 91° |
| 2026-04-30 07:16 | 51.38033 | -2.77841 | 1219 ft | 121 kts | 89° |
| 2026-04-30 07:16 | 51.38085 | -2.76507 | 1053 ft | 120 kts | 88° |
| 2026-04-30 07:16 | 51.38134 | -2.75160 | 905 ft | 121 kts | 88° |
| 2026-04-30 07:17 | 51.38188 | -2.73799 | 705 ft | 124 kts | 86° |
| 2026-04-30 07:17 | 51.38242 | -2.72491 | 635 ft | 100 kts | 85° |
| 2026-04-30 07:17 | 51.38283 | -2.71561 | 611 ft | 1 kts | 85° |
| 2026-04-30 07:18 | 51.38285 | -2.71504 | 610 ft | 11 kts | 85° |
| 2026-04-30 07:18 | 51.38341 | -2.71477 | 620 ft | 12 kts | 330° |
| 2026-04-30 07:18 | 51.38402 | -2.71531 | 620 ft | 9 kts | 349° |
| 2026-04-30 07:18 | 51.38461 | -2.71537 | 615 ft | 0 kts | 356° |
| 2026-04-30 07:19 | 51.38463 | -2.71537 | 615 ft | 1 kts | 356° |
| 2026-04-30 07:20 | 51.38483 | -2.71539 | 623 ft | 5 kts | 356° |
| 2026-04-30 07:20 | 51.38513 | -2.71542 | 627 ft | 5 kts | 356° |
| 2026-04-30 07:20 | 51.38531 | -2.71544 | 625 ft | 2 kts | 356° |
| 2026-04-30 07:20 | 51.38538 | -2.71544 | 617 ft | 0 kts | 356° |